createdAt,value
2019-05-19T00:00:23.478Z,89.37
2019-05-19T00:02:53.211Z,89.39
2019-05-19T00:05:22.620Z,90.21
2019-05-19T00:07:52.102Z,89.48
2019-05-19T00:10:21.620Z,89.46
2019-05-19T00:12:51.234Z,89.43
2019-05-19T00:15:20.740Z,89.43
2019-05-19T00:17:50.184Z,89.62
2019-05-19T00:20:19.700Z,89.44
2019-05-19T00:22:49.829Z,90.28
2019-05-19T00:25:19.277Z,90.96
2019-05-19T00:27:48.811Z,90.38
2019-05-19T00:30:18.583Z,90.03
2019-05-19T00:32:48.030Z,90.52
2019-05-19T00:35:17.899Z,90.34
2019-05-19T00:37:47.514Z,90.29
2019-05-19T00:40:17.035Z,89.81
2019-05-19T00:42:46.506Z,89.71
2019-05-19T00:45:16.233Z,90.63
2019-05-19T00:47:45.683Z,90.33
2019-05-19T00:50:15.504Z,90.99
2019-05-19T00:52:45.039Z,90.98
2019-05-19T00:55:14.731Z,91.56
2019-05-19T00:57:44.931Z,91.75
2019-05-19T01:00:15.295Z,91.83
2019-05-19T01:02:44.809Z,92.09
2019-05-19T01:05:14.847Z,91.65
2019-05-19T01:07:44.350Z,91.73
2019-05-19T01:10:14.087Z,91.13
2019-05-19T01:12:43.535Z,91.16
2019-05-19T01:15:13.620Z,91.20
2019-05-19T01:17:43.058Z,90.96
2019-05-19T01:20:13.112Z,91.09
2019-05-19T01:22:42.621Z,92.15
2019-05-19T01:25:12.489Z,92.87
2019-05-19T01:27:42.052Z,93.39
2019-05-19T01:30:12.623Z,92.53
2019-05-19T01:32:42.079Z,92.59
2019-05-19T01:35:11.693Z,92.49
2019-05-19T01:37:41.151Z,92.42
2019-05-19T01:40:11.314Z,92.04
2019-05-19T01:42:40.773Z,92.69
2019-05-19T01:45:10.757Z,92.66
2019-05-19T01:47:40.206Z,91.89
2019-05-19T01:50:18.604Z,92.41
2019-05-19T01:52:41.955Z,92.57
2019-05-19T01:55:12.401Z,92.71
2019-05-19T01:57:41.867Z,92.62
2019-05-19T02:00:12.227Z,92.23
2019-05-19T02:02:41.669Z,92.49
2019-05-19T02:05:11.344Z,92.40
2019-05-19T02:07:40.884Z,92.32
2019-05-19T02:10:10.530Z,92.75
2019-05-19T02:12:39.974Z,93.39
2019-05-19T02:15:10.072Z,92.93
2019-05-19T02:17:39.523Z,92.50
2019-05-19T02:20:10.385Z,92.23
2019-05-19T02:22:39.994Z,92.04
2019-05-19T02:25:09.881Z,92.12
2019-05-19T02:27:39.394Z,92.40
2019-05-19T02:30:10.865Z,92.34
2019-05-19T02:32:40.965Z,92.47
2019-05-19T02:35:12.387Z,93.50
2019-05-19T02:37:42.017Z,93.61
2019-05-19T02:40:12.924Z,93.47
2019-05-19T02:42:45.109Z,92.97
2019-05-19T02:45:14.985Z,92.81
2019-05-19T02:47:45.983Z,92.70
2019-05-19T02:50:15.639Z,93.17
2019-05-19T02:52:47.908Z,92.81
2019-05-19T02:55:18.885Z,92.68
2019-05-19T02:57:50.947Z,93.26
2019-05-19T03:00:23.499Z,92.99
2019-05-19T03:02:54.564Z,93.14
2019-05-19T03:05:23.979Z,92.82
2019-05-19T03:07:53.408Z,92.86
2019-05-19T03:10:22.816Z,92.77
2019-05-19T03:12:52.404Z,92.95
2019-05-19T03:15:21.825Z,93.16
2019-05-19T03:17:52.018Z,92.84
2019-05-19T03:20:21.495Z,92.45
2019-05-19T03:22:50.954Z,92.40
2019-05-19T03:25:20.360Z,92.43
2019-05-19T03:27:49.805Z,91.80
2019-05-19T03:30:27.872Z,92.08
2019-05-19T03:33:01.764Z,92.12
2019-05-19T03:35:31.144Z,92.33
2019-05-19T03:38:00.589Z,92.41
2019-05-19T03:40:30.000Z,92.39
2019-05-19T03:42:59.449Z,92.39
2019-05-19T03:45:28.870Z,92.41
2019-05-19T03:47:58.342Z,92.47
2019-05-19T03:50:27.761Z,92.40
2019-05-19T03:52:57.211Z,92.33
2019-05-19T03:55:26.630Z,92.49
2019-05-19T03:57:56.625Z,92.49
2019-05-19T04:00:26.113Z,92.53
2019-05-19T04:02:55.570Z,92.82
2019-05-19T04:05:25.003Z,92.77
2019-05-19T04:07:55.942Z,92.78
2019-05-19T04:10:25.440Z,92.63
2019-05-19T04:12:54.905Z,92.77
2019-05-19T04:15:24.332Z,92.64
2019-05-19T04:17:53.809Z,92.11
2019-05-19T04:20:23.205Z,91.82
2019-05-19T04:22:52.663Z,92.63
2019-05-19T04:25:22.117Z,92.38
2019-05-19T04:27:51.576Z,92.52
2019-05-19T04:30:21.376Z,92.36
2019-05-19T04:32:50.845Z,92.80
2019-05-19T04:35:20.448Z,93.33
2019-05-19T04:37:50.114Z,93.36
2019-05-19T04:40:19.567Z,93.20
2019-05-19T04:42:49.840Z,93.12
2019-05-19T04:45:19.289Z,92.59
2019-05-19T04:47:48.842Z,92.13
2019-05-19T04:50:18.788Z,91.85
2019-05-19T04:52:48.239Z,91.76
2019-05-19T04:55:17.729Z,90.83
2019-05-19T04:57:47.308Z,91.00
2019-05-19T05:00:17.740Z,90.36
2019-05-19T05:02:47.200Z,90.82
2019-05-19T05:05:17.098Z,90.51
2019-05-19T05:07:46.546Z,90.27
2019-05-19T05:10:16.321Z,90.16
2019-05-19T05:12:45.781Z,90.21
2019-05-19T05:15:15.403Z,89.82
2019-05-19T05:17:44.997Z,89.96
2019-05-19T05:20:16.173Z,89.86
2019-05-19T05:22:48.617Z,89.56
2019-05-19T05:25:19.121Z,89.61
2019-05-19T05:27:48.625Z,89.84
2019-05-19T05:30:18.895Z,90.08
2019-05-19T05:32:48.641Z,90.10
2019-05-19T05:35:21.153Z,90.23
2019-05-19T05:37:50.599Z,89.95
2019-05-19T05:40:20.274Z,88.98
2019-05-19T05:42:49.748Z,88.50
2019-05-19T05:45:19.259Z,88.42
2019-05-19T05:47:48.892Z,87.84
2019-05-19T05:50:18.596Z,87.49
2019-05-19T05:52:48.039Z,86.70
2019-05-19T05:55:17.638Z,86.53
2019-05-19T05:57:47.143Z,85.51
2019-05-19T06:00:17.099Z,84.55
2019-05-19T06:02:46.705Z,83.71
2019-05-19T06:05:16.215Z,82.37
2019-05-19T06:07:45.651Z,81.42
2019-05-19T06:10:16.964Z,81.86
2019-05-19T06:12:46.567Z,82.11
2019-05-19T06:15:17.991Z,80.38
2019-05-19T06:17:48.102Z,79.22
2019-05-19T06:20:19.196Z,78.60
2019-05-19T06:22:56.263Z,77.48
2019-05-19T06:25:20.162Z,77.48
2019-05-19T06:27:49.615Z,76.98
2019-05-19T06:30:20.909Z,74.48
2019-05-19T06:32:55.835Z,75.30
2019-05-19T06:35:25.590Z,75.05
2019-05-19T06:37:55.009Z,74.84
2019-05-19T06:40:24.588Z,74.38
2019-05-19T06:42:54.096Z,74.06
2019-05-19T06:45:23.752Z,75.73
2019-05-19T06:47:54.744Z,74.90
2019-05-19T06:50:24.198Z,73.82
2019-05-19T06:52:53.707Z,71.65
2019-05-19T06:55:23.214Z,71.82
2019-05-19T06:57:52.646Z,72.99
2019-05-19T07:00:23.965Z,73.51
2019-05-19T07:02:53.428Z,74.02
2019-05-19T07:05:22.882Z,74.91
2019-05-19T07:07:52.809Z,73.29
2019-05-19T07:10:22.258Z,71.18
2019-05-19T07:12:51.719Z,69.05
2019-05-19T07:15:21.257Z,68.88
2019-05-19T07:17:51.023Z,69.16
2019-05-19T07:20:20.459Z,69.33
2019-05-19T07:22:50.473Z,68.62
2019-05-19T07:25:20.119Z,67.87
2019-05-19T07:27:50.723Z,66.59
2019-05-19T07:30:20.570Z,66.39
2019-05-19T07:32:50.016Z,67.89
2019-05-19T07:35:19.459Z,66.58
2019-05-19T07:37:48.951Z,67.38
2019-05-19T07:40:18.552Z,69.10
2019-05-19T07:42:48.120Z,69.00
2019-05-19T07:45:20.355Z,70.51
2019-05-19T07:47:49.898Z,71.04
2019-05-19T07:50:19.335Z,70.33
2019-05-19T07:52:48.911Z,69.44
2019-05-19T07:55:18.358Z,69.20
2019-05-19T07:57:47.763Z,67.20
2019-05-19T08:00:17.465Z,65.76
2019-05-19T08:02:46.899Z,65.96
2019-05-19T08:05:17.914Z,66.75
2019-05-19T08:07:47.623Z,67.20
2019-05-19T08:10:17.319Z,66.60
2019-05-19T08:12:46.734Z,65.85
2019-05-19T08:15:17.028Z,66.21
2019-05-19T08:17:46.491Z,66.58
2019-05-19T08:20:16.488Z,67.79
2019-05-19T08:22:46.192Z,67.65
2019-05-19T08:25:15.809Z,68.21
2019-05-19T08:27:45.331Z,68.76
2019-05-19T08:30:16.809Z,70.60
2019-05-19T08:32:46.495Z,71.70
2019-05-19T08:35:15.976Z,71.36
2019-05-19T08:37:45.424Z,68.67
2019-05-19T08:40:15.519Z,67.98
2019-05-19T08:42:45.081Z,68.57
2019-05-19T08:45:14.921Z,68.84
2019-05-19T08:47:44.432Z,66.23
2019-05-19T08:50:14.316Z,60.58
2019-05-19T08:52:43.771Z,60.31
2019-05-19T08:55:13.408Z,62.48
2019-05-19T08:57:43.073Z,57.33
2019-05-19T09:00:14.021Z,60.74
2019-05-19T09:02:43.458Z,59.65
2019-05-19T09:05:13.448Z,60.55
2019-05-19T09:07:42.922Z,62.47
2019-05-19T09:10:14.434Z,61.05
2019-05-19T09:12:43.895Z,61.49
2019-05-19T09:15:13.469Z,62.18
2019-05-19T09:17:43.121Z,63.50
2019-05-19T09:20:13.078Z,63.38
2019-05-19T09:22:42.545Z,63.24
2019-05-19T09:25:12.053Z,63.59
2019-05-19T09:27:41.506Z,64.31
2019-05-19T09:30:11.465Z,65.13
2019-05-19T09:32:40.991Z,63.91
2019-05-19T09:35:11.910Z,64.26
2019-05-19T09:37:41.356Z,66.06
2019-05-19T09:40:11.943Z,65.88
2019-05-19T09:42:42.899Z,64.69
2019-05-19T09:45:12.755Z,64.36
2019-05-19T09:47:43.858Z,63.91
2019-05-19T09:50:14.730Z,65.80
2019-05-19T09:52:44.359Z,62.12
2019-05-19T09:55:15.115Z,63.23
2019-05-19T09:57:44.547Z,65.25
2019-05-19T10:00:14.237Z,64.53
2019-05-19T10:02:43.681Z,66.91
2019-05-19T10:05:13.866Z,69.30
2019-05-19T10:07:43.449Z,72.34
2019-05-19T10:10:18.842Z,74.42
2019-05-19T10:12:50.913Z,74.44
2019-05-19T10:15:20.644Z,75.15
2019-05-19T10:17:50.122Z,75.10
2019-05-19T10:20:19.870Z,73.58
2019-05-19T10:22:49.304Z,73.58
2019-05-19T10:25:22.373Z,73.66
2019-05-19T10:27:50.024Z,74.23
2019-05-19T10:30:20.980Z,73.05
2019-05-19T10:32:50.445Z,69.13
2019-05-19T10:35:19.851Z,70.18
2019-05-19T10:37:50.262Z,71.30
2019-05-19T10:40:19.913Z,68.99
2019-05-19T10:42:50.221Z,66.72
2019-05-19T10:45:19.696Z,69.21
2019-05-19T10:47:49.130Z,70.54
2019-05-19T10:50:18.720Z,72.87
2019-05-19T10:52:48.230Z,71.59
2019-05-19T10:55:17.855Z,70.49
2019-05-19T10:57:48.849Z,70.17
2019-05-19T11:00:18.742Z,67.29
2019-05-19T11:02:48.206Z,65.72
2019-05-19T11:05:17.685Z,64.32
2019-05-19T11:07:48.728Z,65.47
2019-05-19T11:10:18.277Z,66.80
2019-05-19T11:12:47.732Z,64.09
2019-05-19T11:15:17.470Z,63.20
2019-05-19T11:17:46.925Z,62.18
2019-05-19T11:20:16.526Z,61.92
2019-05-19T11:22:46.115Z,61.34
2019-05-19T11:25:15.716Z,62.85
2019-05-19T11:27:45.172Z,65.60
2019-05-19T11:30:15.060Z,69.66
2019-05-19T11:32:44.710Z,71.21
2019-05-19T11:35:17.502Z,70.77
2019-05-19T11:37:47.091Z,68.44
2019-05-19T11:40:17.934Z,65.30
2019-05-19T11:42:47.427Z,63.82
2019-05-19T11:45:17.071Z,62.00
2019-05-19T11:47:46.653Z,63.07
2019-05-19T11:50:16.301Z,61.56
2019-05-19T11:52:45.732Z,60.47
2019-05-19T11:55:15.408Z,59.98
2019-05-19T11:57:45.219Z,60.77
2019-05-19T12:00:15.196Z,57.41
2019-05-19T12:02:44.654Z,55.75
2019-05-19T12:05:14.415Z,58.35
2019-05-19T12:07:43.852Z,57.46
2019-05-19T12:10:13.437Z,58.46
2019-05-19T12:12:42.951Z,57.97
2019-05-19T12:15:12.993Z,58.38
2019-05-19T12:17:42.452Z,57.30
2019-05-19T12:20:12.080Z,56.59
2019-05-19T12:22:41.535Z,58.48
2019-05-19T12:25:11.422Z,58.57
2019-05-19T12:27:41.132Z,57.99
2019-05-19T12:30:13.637Z,57.85
2019-05-19T12:32:43.103Z,56.83
2019-05-19T12:35:12.876Z,56.81
2019-05-19T12:37:42.385Z,57.62
2019-05-19T12:40:13.032Z,57.51
2019-05-19T12:42:42.462Z,57.85
2019-05-19T12:45:14.491Z,55.55
2019-05-19T12:47:44.003Z,59.86
2019-05-19T12:50:14.353Z,62.38
2019-05-19T12:52:43.811Z,59.40
2019-05-19T12:55:13.797Z,56.72
2019-05-19T12:57:43.331Z,56.72
2019-05-19T13:00:14.287Z,56.15
2019-05-19T13:02:43.746Z,55.33
2019-05-19T13:05:13.844Z,54.09
2019-05-19T13:07:43.327Z,56.93
2019-05-19T13:10:12.983Z,56.28
2019-05-19T13:12:42.450Z,58.62
2019-05-19T13:15:15.389Z,59.23
2019-05-19T13:17:43.350Z,58.27
2019-05-19T13:20:13.368Z,60.24
2019-05-19T13:22:42.811Z,59.47
2019-05-19T13:25:12.795Z,58.00
2019-05-19T13:27:42.254Z,59.45
2019-05-19T13:30:12.125Z,57.99
2019-05-19T13:32:41.583Z,58.66
2019-05-19T13:35:11.151Z,58.13
2019-05-19T13:37:42.153Z,59.98
2019-05-19T13:40:12.000Z,60.47
2019-05-19T13:42:41.457Z,62.20
2019-05-19T13:45:11.810Z,62.76
2019-05-19T13:47:42.779Z,63.02
2019-05-19T13:50:12.725Z,62.20
2019-05-19T13:52:42.348Z,62.86
2019-05-19T13:55:11.955Z,60.65
2019-05-19T13:57:41.444Z,58.58
2019-05-19T14:00:11.564Z,60.34
2019-05-19T14:02:42.716Z,59.39
2019-05-19T14:05:12.507Z,59.29
2019-05-19T14:07:41.963Z,60.84
2019-05-19T14:10:12.011Z,58.52
2019-05-19T14:12:42.081Z,58.42
2019-05-19T14:15:11.659Z,60.81
2019-05-19T14:17:41.085Z,60.76
2019-05-19T14:20:11.051Z,61.38
2019-05-19T14:22:40.560Z,60.57
2019-05-19T14:25:10.538Z,62.07
2019-05-19T14:27:39.999Z,61.06
2019-05-19T14:30:09.907Z,60.72
2019-05-19T14:32:39.361Z,60.48
2019-05-19T14:35:09.639Z,61.84
2019-05-19T14:37:39.194Z,60.80
2019-05-19T14:40:09.193Z,62.06
2019-05-19T14:42:43.458Z,62.21
2019-05-19T14:45:14.644Z,62.86
2019-05-19T14:47:44.116Z,63.76
2019-05-19T14:50:13.985Z,63.22
2019-05-19T14:52:43.428Z,64.91
2019-05-19T14:55:13.899Z,64.44
2019-05-19T14:57:45.280Z,63.31
2019-05-19T15:00:15.362Z,64.25
2019-05-19T15:02:45.032Z,64.33
2019-05-19T15:05:15.703Z,64.85
2019-05-19T15:07:45.329Z,63.58
2019-05-19T15:10:17.104Z,64.39
2019-05-19T15:12:46.675Z,64.85
2019-05-19T15:15:16.517Z,63.50
2019-05-19T15:17:46.160Z,63.08
2019-05-19T15:20:16.365Z,62.87
2019-05-19T15:22:45.840Z,62.90
2019-05-19T15:25:15.660Z,61.97
2019-05-19T15:27:59.366Z,63.18
2019-05-19T15:30:17.928Z,62.38
2019-05-19T15:32:47.382Z,63.21
2019-05-19T15:35:17.096Z,62.57
2019-05-19T15:37:46.524Z,61.47
2019-05-19T15:40:16.219Z,59.96
2019-05-19T15:42:46.465Z,59.16
2019-05-19T15:45:16.325Z,60.41
2019-05-19T15:47:45.772Z,60.03
2019-05-19T15:50:16.569Z,60.62
2019-05-19T15:52:46.132Z,61.05
2019-05-19T15:55:15.662Z,63.21
2019-05-19T15:57:45.070Z,64.55
2019-05-19T16:00:17.511Z,66.83
2019-05-19T16:02:46.927Z,68.42
2019-05-19T16:05:16.644Z,68.79
2019-05-19T16:07:46.059Z,69.82
2019-05-19T16:10:17.317Z,71.94
2019-05-19T16:12:46.765Z,71.94
2019-05-19T16:15:16.661Z,72.81
2019-05-19T16:17:46.102Z,73.03
2019-05-19T16:20:16.269Z,73.31
2019-05-19T16:22:45.885Z,73.54
2019-05-19T16:25:15.469Z,73.83
2019-05-19T16:27:44.972Z,73.83
2019-05-19T16:30:14.624Z,74.13
2019-05-19T16:32:44.084Z,73.48
2019-05-19T16:35:15.636Z,73.83
2019-05-19T16:37:45.106Z,74.39
2019-05-19T16:40:16.378Z,75.78
2019-05-19T16:42:45.822Z,75.78
2019-05-19T16:45:15.522Z,77.12
2019-05-19T16:47:45.004Z,77.12
2019-05-19T16:50:14.501Z,77.58
2019-05-19T16:52:43.955Z,77.61
2019-05-19T16:55:21.046Z,77.98
2019-05-19T16:57:50.516Z,77.72
2019-05-19T17:00:20.308Z,78.12
2019-05-19T17:02:49.829Z,78.24
2019-05-19T17:05:19.414Z,78.14
2019-05-19T17:07:48.934Z,78.80
2019-05-19T17:10:18.542Z,78.92
2019-05-19T17:12:47.988Z,78.84
2019-05-19T17:15:19.254Z,78.52
2019-05-19T17:17:48.768Z,79.21
2019-05-19T17:20:18.744Z,78.55
2019-05-19T17:22:48.292Z,78.93
2019-05-19T17:25:17.778Z,79.33
2019-05-19T17:27:47.229Z,79.67
2019-05-19T17:30:17.675Z,79.10
2019-05-19T17:32:47.105Z,78.51
2019-05-19T17:35:16.913Z,78.56
2019-05-19T17:37:46.420Z,77.68
2019-05-19T17:40:17.118Z,78.06
2019-05-19T17:42:46.629Z,78.02
2019-05-19T17:45:16.562Z,78.21
2019-05-19T17:47:46.080Z,78.03
2019-05-19T17:50:17.698Z,78.17
2019-05-19T17:52:47.155Z,78.06
2019-05-19T17:55:17.871Z,77.65
2019-05-19T17:57:47.663Z,77.83
2019-05-19T18:00:20.190Z,77.90
2019-05-19T18:02:49.622Z,77.94
2019-05-19T18:05:19.111Z,78.34
2019-05-19T18:07:48.554Z,78.89
2019-05-19T18:10:18.078Z,79.67
2019-05-19T18:12:47.516Z,79.95
2019-05-19T18:15:17.555Z,79.74
2019-05-19T18:17:46.999Z,79.63
2019-05-19T18:20:23.748Z,79.74
2019-05-19T18:22:47.766Z,79.99
2019-05-19T18:25:17.255Z,79.66
2019-05-19T18:27:46.751Z,79.50
2019-05-19T18:30:17.179Z,79.13
2019-05-19T18:32:46.627Z,79.26
2019-05-19T18:35:16.107Z,79.64
2019-05-19T18:37:45.551Z,79.61
2019-05-19T18:40:15.227Z,79.38
2019-05-19T18:42:44.667Z,79.03
2019-05-19T18:45:14.205Z,79.32
2019-05-19T18:47:44.208Z,79.07
2019-05-19T18:50:14.148Z,78.34
2019-05-19T18:52:43.863Z,77.73
2019-05-19T18:55:13.425Z,77.87
2019-05-19T18:57:42.920Z,77.80
2019-05-19T19:00:12.663Z,76.75
2019-05-19T19:02:42.210Z,76.25
2019-05-19T19:05:11.748Z,76.21
2019-05-19T19:07:48.490Z,76.31
2019-05-19T19:10:17.897Z,76.31
2019-05-19T19:12:47.910Z,76.72
2019-05-19T19:15:17.451Z,76.47
2019-05-19T19:17:47.038Z,77.29
2019-05-19T19:20:16.544Z,76.69
2019-05-19T19:22:45.989Z,76.85
2019-05-19T19:25:15.497Z,76.62
2019-05-19T19:27:45.013Z,77.07
2019-05-19T19:30:15.437Z,76.11
2019-05-19T19:32:45.348Z,76.49
2019-05-19T19:35:14.870Z,76.70
2019-05-19T19:37:44.321Z,75.65
2019-05-19T19:40:14.197Z,73.30
2019-05-19T19:42:44.369Z,73.75
2019-05-19T19:45:14.494Z,73.95
2019-05-19T19:47:45.474Z,74.63
2019-05-19T19:50:16.490Z,74.83
2019-05-19T19:52:45.998Z,74.94
2019-05-19T19:55:15.426Z,74.42
2019-05-19T19:57:44.845Z,74.23
2019-05-19T20:00:18.252Z,74.39
2019-05-19T20:02:45.824Z,74.02
2019-05-19T20:05:16.824Z,73.74
2019-05-19T20:07:46.365Z,70.80
2019-05-19T20:10:17.357Z,68.70
2019-05-19T20:12:46.772Z,69.17
2019-05-19T20:15:16.284Z,69.45
2019-05-19T20:17:45.690Z,69.94
2019-05-19T20:20:15.174Z,70.03
2019-05-19T20:22:44.604Z,70.84
2019-05-19T20:25:14.112Z,72.07
2019-05-19T20:27:43.546Z,72.08
2019-05-19T20:30:13.212Z,72.87
2019-05-19T20:32:42.613Z,72.83
2019-05-19T20:35:14.093Z,71.42
2019-05-19T20:37:43.643Z,72.50
2019-05-19T20:40:14.621Z,73.12
2019-05-19T20:42:44.019Z,74.46
2019-05-19T20:45:13.788Z,74.14
2019-05-19T20:47:43.187Z,75.39
2019-05-19T20:50:13.278Z,76.04
2019-05-19T20:52:42.661Z,76.52
2019-05-19T20:55:12.888Z,77.55
2019-05-19T20:57:42.313Z,78.64
2019-05-19T21:00:13.382Z,79.62
2019-05-19T21:02:42.877Z,79.76
2019-05-19T21:05:12.461Z,80.29
2019-05-19T21:07:41.884Z,80.57
2019-05-19T21:10:11.943Z,80.42
2019-05-19T21:12:41.437Z,80.37
2019-05-19T21:15:11.432Z,80.30
2019-05-19T21:17:40.945Z,80.08
2019-05-19T21:20:11.020Z,79.76
2019-05-19T21:22:40.497Z,78.79
2019-05-19T21:25:10.699Z,78.19
2019-05-19T21:27:40.373Z,75.79
2019-05-19T21:30:10.454Z,75.46
2019-05-19T21:32:39.961Z,75.03
2019-05-19T21:35:09.634Z,75.79
2019-05-19T21:37:39.159Z,75.67
2019-05-19T21:40:09.040Z,75.50
2019-05-19T21:42:38.499Z,75.74
2019-05-19T21:45:08.146Z,76.37
2019-05-19T21:47:37.557Z,76.90
2019-05-19T21:50:08.686Z,77.69
2019-05-19T21:52:38.129Z,77.21
2019-05-19T21:55:08.122Z,77.81
2019-05-19T21:57:37.528Z,78.10
2019-05-19T22:00:12.533Z,78.18
2019-05-19T22:02:42.078Z,78.18
2019-05-19T22:05:12.027Z,78.85
2019-05-19T22:07:43.128Z,79.63
2019-05-19T22:10:12.833Z,79.50
2019-05-19T22:12:42.428Z,80.78
2019-05-19T22:15:12.240Z,80.92
2019-05-19T22:17:41.832Z,82.17
2019-05-19T22:20:13.178Z,82.50
2019-05-19T22:22:42.614Z,83.09
2019-05-19T22:25:12.528Z,83.94
2019-05-19T22:27:42.139Z,82.96
2019-05-19T22:30:11.860Z,84.62
2019-05-19T22:32:41.295Z,85.52
2019-05-19T22:35:13.283Z,86.02
2019-05-19T22:37:42.720Z,86.50
2019-05-19T22:40:12.386Z,87.75
2019-05-19T22:42:41.835Z,88.39
2019-05-19T22:45:11.980Z,87.89
2019-05-19T22:47:41.426Z,87.61
2019-05-19T22:50:11.491Z,89.22
2019-05-19T22:52:42.593Z,89.88
2019-05-19T22:55:12.872Z,90.10
2019-05-19T22:57:42.317Z,89.76
2019-05-19T23:00:13.038Z,89.63
2019-05-19T23:02:42.604Z,89.40
2019-05-19T23:05:12.755Z,90.11
2019-05-19T23:07:42.182Z,90.02
2019-05-19T23:10:12.131Z,89.95
2019-05-19T23:12:41.592Z,89.97
2019-05-19T23:15:11.249Z,90.04
2019-05-19T23:17:40.820Z,90.04
2019-05-19T23:20:10.402Z,89.69
2019-05-19T23:22:41.654Z,89.66
2019-05-19T23:25:11.409Z,90.26
2019-05-19T23:27:40.869Z,90.15
2019-05-19T23:30:10.985Z,89.91
2019-05-19T23:32:41.932Z,90.24
2019-05-19T23:35:11.686Z,90.08
2019-05-19T23:37:41.130Z,90.31
2019-05-19T23:40:12.556Z,90.64
2019-05-19T23:42:42.231Z,90.91
2019-05-19T23:45:12.729Z,91.00
2019-05-19T23:47:42.159Z,90.26
2019-05-19T23:50:11.845Z,90.29
2019-05-19T23:52:41.361Z,90.57
2019-05-19T23:55:12.924Z,90.85
2019-05-19T23:57:42.345Z,90.85
